Time;durP1;ratioP1;P1;durP2;ratioP2;P2;SDS_P1;SDS_P2;PMS_P1;PMS_P2;Temp;Humidity;BMP_temperature;BMP_pressure;BME280_temperature;BME280_humidity;BME280_pressure;Samples;Min_cycle;Max_cycle;Signal;HPM_P1;HPM_P2
2023/03/17 00:01:26;;;;;;;10.20;7.50;;;;;;;;;;79650;264;3027596;-35
2023/03/17 00:04:05;;;;;;;9.30;6.90;;;;;;;;;;79652;264;3031315;-35
2023/03/17 00:06:42;;;;;;;10.90;7.40;;;;;;;;;;79646;264;3037937;-35
2023/03/17 00:09:21;;;;;;;9.60;7.20;;;;;;;;;;79606;264;3029551;-35
2023/03/17 00:11:58;;;;;;;9.80;7.40;;;;;;;;;;79653;253;3027631;-35
2023/03/17 00:14:35;;;;;;;10.30;7.00;;;;;;;;;;79623;264;3030751;-35
2023/03/17 00:17:13;;;;;;;10.10;7.50;;;;;;;;;;79640;264;3031854;-35
2023/03/17 00:19:49;;;;;;;11.30;7.40;;;;;;;;;;79623;264;3028561;-35
2023/03/17 00:22:24;;;;;;;10.00;7.70;;;;;;;;;;79641;264;3027713;-35
2023/03/17 00:24:59;;;;;;;10.30;7.60;;;;;;;;;;80333;264;3011405;-35
2023/03/17 00:27:37;;;;;;;10.80;7.50;;;;;;;;;;80362;264;3011168;-35
2023/03/17 00:30:17;;;;;;;11.20;7.80;;;;;;;;;;79624;264;3031138;-35
2023/03/17 00:32:55;;;;;;;10.80;7.80;;;;;;;;;;79612;264;3032079;-35
2023/03/17 00:35:33;;;;;;;10.60;7.80;;;;;;;;;;79618;264;3028773;-35
2023/03/17 00:38:12;;;;;;;10.20;7.30;;;;;;;;;;79640;264;3027552;-35
2023/03/17 00:40:49;;;;;;;10.40;7.80;;;;;;;;;;79656;264;3030719;-35
2023/03/17 00:43:24;;;;;;;10.80;7.70;;;;;;;;;;79645;264;3032238;-35
2023/03/17 00:46:00;;;;;;;10.00;7.40;;;;;;;;;;80296;264;3011495;-35
2023/03/17 00:48:35;;;;;;;10.90;8.00;;;;;;;;;;79661;264;3027847;-35
2023/03/17 00:51:15;;;;;;;10.40;7.30;;;;;;;;;;80348;264;3011179;-35
2023/03/17 00:53:51;;;;;;;10.70;7.70;;;;;;;;;;79649;264;3028014;-35
2023/03/17 00:56:26;;;;;;;9.60;7.80;;;;;;;;;;79606;264;3031069;-35
2023/03/17 00:59:02;;;;;;;10.30;7.70;;;;;;;;;;79612;264;3031943;-35
2023/03/17 01:01:38;;;;;;;10.00;7.70;;;;;;;;;;80348;264;3011561;-35
2023/03/17 01:04:14;;;;;;;10.10;7.60;;;;;;;;;;79643;264;3028598;-35
2023/03/17 01:06:52;;;;;;;10.90;8.10;;;;;;;;;;79606;264;3027899;-35
2023/03/17 01:09:32;;;;;;;11.20;8.10;;;;;;;;;;79634;264;3030929;-35
2023/03/17 01:12:12;;;;;;;10.50;8.10;;;;;;;;;;79638;264;3031947;-35
2023/03/17 01:14:49;;;;;;;11.10;8.40;;;;;;;;;;79642;264;3028075;-35
2023/03/17 01:17:24;;;;;;;11.30;8.30;;;;;;;;;;79638;264;3027200;-35
2023/03/17 01:20:00;;;;;;;11.30;7.90;;;;;;;;;;80371;264;3012563;-35
2023/03/17 01:22:36;;;;;;;11.30;8.00;;;;;;;;;;80374;264;3011409;-35
2023/03/17 01:25:12;;;;;;;10.70;7.90;;;;;;;;;;80361;264;3011325;-35
2023/03/17 01:27:50;;;;;;;11.50;8.50;;;;;;;;;;79605;264;3030768;-35
2023/03/17 01:30:33;;;;;;;10.70;8.80;;;;;;;;;;79660;264;3031918;-35
2023/03/17 01:33:09;;;;;;;11.20;8.20;;;;;;;;;;79652;260;3029120;-34
2023/03/17 01:35:51;;;;;;;10.90;8.40;;;;;;;;;;79639;264;3029385;-34
2023/03/17 01:38:27;;;;;;;11.10;8.50;;;;;;;;;;79741;264;3036204;-34
2023/03/17 01:41:06;;;;;;;11.50;8.40;;;;;;;;;;79631;264;3031553;-34
2023/03/17 01:43:42;;;;;;;11.40;8.70;;;;;;;;;;79672;264;3028186;-34
2023/03/17 01:46:28;;;;;;;11.40;8.70;;;;;;;;;;79633;264;3027724;-34
2023/03/17 01:49:26;;;;;;;11.80;9.00;;;;;;;;;;79700;264;3038277;-34
2023/03/17 01:52:12;;;;;;;11.60;8.80;;;;;;;;;;79684;264;3031861;-34
2023/03/17 01:54:54;;;;;;;11.40;8.80;;;;;;;;;;79211;265;3516474;-34
2023/03/17 01:57:33;;;;;;;11.10;8.30;;;;;;;;;;79636;264;3028682;-34
2023/03/17 02:00:16;;;;;;;11.70;9.30;;;;;;;;;;79640;264;3030502;-34
2023/03/17 02:03:06;;;;;;;11.60;9.00;;;;;;;;;;79671;264;3031212;-34
2023/03/17 02:05:42;;;;;;;11.80;8.80;;;;;;;;;;79652;264;3029549;-34
2023/03/17 02:08:19;;;;;;;12.10;8.80;;;;;;;;;;79621;264;3027286;-34
2023/03/17 02:10:57;;;;;;;12.10;9.00;;;;;;;;;;79635;264;3031697;-34
2023/03/17 02:13:37;;;;;;;11.20;8.80;;;;;;;;;;79626;264;3031132;-34
2023/03/17 02:16:17;;;;;;;10.80;8.90;;;;;;;;;;79646;264;3028590;-34
2023/03/17 02:18:52;;;;;;;11.60;9.00;;;;;;;;;;79611;264;3027209;-34
2023/03/17 02:21:40;;;;;;;11.30;8.80;;;;;;;;;;80375;264;3011501;-34
2023/03/17 02:24:28;;;;;;;11.50;8.80;;;;;;;;;;79643;264;3030807;-34
2023/03/17 02:27:14;;;;;;;11.70;9.30;;;;;;;;;;79638;264;3031857;-34
2023/03/17 02:29:50;;;;;;;12.00;9.20;;;;;;;;;;79633;264;3034592;-34
2023/03/17 02:32:25;;;;;;;11.20;9.00;;;;;;;;;;79617;264;3028091;-34
2023/03/17 02:35:02;;;;;;;11.10;9.10;;;;;;;;;;80393;264;3011348;-34
2023/03/17 02:37:40;;;;;;;11.60;9.00;;;;;;;;;;80350;264;3012330;-34
2023/03/17 02:40:17;;;;;;;11.80;9.30;;;;;;;;;;79661;272;3031354;-34
2023/03/17 02:42:53;;;;;;;12.10;9.40;;;;;;;;;;79685;264;3031844;-34
2023/03/17 02:45:30;;;;;;;12.60;9.30;;;;;;;;;;79640;264;3028786;-34
2023/03/17 02:48:08;;;;;;;11.50;9.10;;;;;;;;;;79591;264;3028156;-34
2023/03/17 02:50:46;;;;;;;12.20;9.90;;;;;;;;;;79665;264;3030991;-34
2023/03/17 02:53:23;;;;;;;12.90;10.10;;;;;;;;;;80386;264;3011492;-34
2023/03/17 02:56:02;;;;;;;12.40;9.80;;;;;;;;;;79630;264;3031544;-35
2023/03/17 02:58:39;;;;;;;12.10;9.30;;;;;;;;;;79647;264;3028664;-34
2023/03/17 03:01:19;;;;;;;12.20;9.30;;;;;;;;;;79631;264;3027687;-34
2023/03/17 03:03:54;;;;;;;12.10;9.40;;;;;;;;;;79636;264;3031475;-34
2023/03/17 03:06:31;;;;;;;12.60;9.20;;;;;;;;;;79629;264;3031430;-34
2023/03/17 03:09:10;;;;;;;12.30;9.50;;;;;;;;;;80353;264;3011528;-34
2023/03/17 03:11:45;;;;;;;12.90;9.40;;;;;;;;;;79626;264;3028782;-34
2023/03/17 03:14:21;;;;;;;13.30;9.80;;;;;;;;;;80345;264;3011505;-34
2023/03/17 03:16:57;;;;;;;12.80;9.50;;;;;;;;;;80363;264;3011519;-34
2023/03/17 03:19:34;;;;;;;12.20;9.60;;;;;;;;;;79600;253;3028320;-34
2023/03/17 03:22:11;;;;;;;12.20;9.70;;;;;;;;;;79653;264;3030629;-34
2023/03/17 03:24:47;;;;;;;12.70;9.70;;;;;;;;;;79618;264;3031368;-34
2023/03/17 03:27:23;;;;;;;12.50;10.10;;;;;;;;;;79640;264;3028839;-34
2023/03/17 03:29:59;;;;;;;12.40;10.00;;;;;;;;;;79639;264;3027753;-34
2023/03/17 03:32:36;;;;;;;12.60;9.80;;;;;;;;;;79670;264;3031374;-34
2023/03/17 03:35:13;;;;;;;13.20;10.10;;;;;;;;;;79654;264;3031389;-34
2023/03/17 03:37:48;;;;;;;12.90;10.00;;;;;;;;;;79648;264;3028570;-34
2023/03/17 03:40:24;;;;;;;13.80;9.50;;;;;;;;;;80355;264;3013014;-34
2023/03/17 03:43:01;;;;;;;12.40;10.00;;;;;;;;;;80408;264;3011484;-34
2023/03/17 03:45:58;;;;;;;12.50;9.90;;;;;;;;;;79640;264;3027334;-34
2023/03/17 03:48:37;;;;;;;13.80;10.20;;;;;;;;;;79649;264;3031030;-34
2023/03/17 03:51:12;;;;;;;13.30;10.30;;;;;;;;;;79621;264;3031080;-34
2023/03/17 03:53:48;;;;;;;12.30;10.10;;;;;;;;;;80360;264;3011507;-34
2023/03/17 03:56:27;;;;;;;12.90;9.50;;;;;;;;;;80355;264;3011525;-34
2023/03/17 03:59:03;;;;;;;12.50;9.90;;;;;;;;;;79648;264;3028233;-34
2023/03/17 04:01:39;;;;;;;12.80;9.90;;;;;;;;;;79612;264;3027973;-34
2023/03/17 04:04:15;;;;;;;12.30;9.90;;;;;;;;;;79635;264;3030799;-34
2023/03/17 04:06:51;;;;;;;13.40;10.40;;;;;;;;;;79657;264;3031146;-34
2023/03/17 04:09:30;;;;;;;12.60;9.90;;;;;;;;;;79651;264;3028342;-34
2023/03/17 04:12:07;;;;;;;12.30;9.70;;;;;;;;;;79627;264;3034173;-34
2023/03/17 04:14:44;;;;;;;12.20;10.20;;;;;;;;;;79666;264;3030933;-36
2023/03/17 04:17:20;;;;;;;12.10;10.10;;;;;;;;;;79635;264;3031941;-35
2023/03/17 04:19:57;;;;;;;12.60;9.30;;;;;;;;;;80384;264;3011462;-35
2023/03/17 04:22:33;;;;;;;12.40;9.70;;;;;;;;;;79661;264;3035028;-35
2023/03/17 04:25:15;;;;;;;13.80;10.30;;;;;;;;;;79637;264;3027046;-35
2023/03/17 04:27:51;;;;;;;12.30;10.30;;;;;;;;;;79613;264;3031640;-35
2023/03/17 04:30:28;;;;;;;13.60;10.10;;;;;;;;;;79617;264;3032663;-35
2023/03/17 04:33:11;;;;;;;12.20;9.80;;;;;;;;;;79639;264;3028162;-35
2023/03/17 04:35:52;;;;;;;12.50;9.80;;;;;;;;;;79648;264;3027823;-35
2023/03/17 04:38:30;;;;;;;12.20;10.20;;;;;;;;;;79671;264;3030437;-35
2023/03/17 04:41:09;;;;;;;13.00;10.50;;;;;;;;;;79640;264;3031255;-35
2023/03/17 04:43:47;;;;;;;12.00;9.80;;;;;;;;;;79643;264;3028287;-35
2023/03/17 04:46:25;;;;;;;12.30;9.90;;;;;;;;;;79643;264;3027775;-35
2023/03/17 04:49:05;;;;;;;12.10;9.60;;;;;;;;;;79640;264;3030606;-35
2023/03/17 04:51:45;;;;;;;11.80;9.70;;;;;;;;;;79622;264;3031785;-35
2023/03/17 04:54:26;;;;;;;11.40;9.30;;;;;;;;;;79619;264;3028696;-35
2023/03/17 04:57:02;;;;;;;12.60;9.70;;;;;;;;;;79649;264;3028061;-35
2023/03/17 04:59:42;;;;;;;13.20;9.60;;;;;;;;;;79653;264;3030903;-35
2023/03/17 05:02:21;;;;;;;12.20;9.80;;;;;;;;;;79635;264;3031663;-35
2023/03/17 05:05:01;;;;;;;12.10;10.30;;;;;;;;;;79640;264;3027949;-35
2023/03/17 05:07:36;;;;;;;12.50;9.90;;;;;;;;;;79651;264;3027589;-36
2023/03/17 05:10:14;;;;;;;11.80;9.80;;;;;;;;;;80360;264;3011549;-35
2023/03/17 05:12:48;;;;;;;11.40;9.80;;;;;;;;;;79614;264;3030632;-36
2023/03/17 05:15:24;;;;;;;12.30;10.00;;;;;;;;;;80371;264;3011313;-35
2023/03/17 05:18:00;;;;;;;12.10;9.80;;;;;;;;;;80363;264;3011311;-35
2023/03/17 05:20:38;;;;;;;12.60;9.80;;;;;;;;;;79622;264;3031235;-35
2023/03/17 05:23:15;;;;;;;12.40;9.80;;;;;;;;;;80330;264;3012876;-35
2023/03/17 05:25:49;;;;;;;11.60;9.40;;;;;;;;;;79639;264;3028409;-35
2023/03/17 05:28:29;;;;;;;12.90;9.70;;;;;;;;;;80338;261;3011768;-35
2023/03/17 05:31:07;;;;;;;13.00;10.40;;;;;;;;;;79653;311;3027293;-35
2023/03/17 05:33:48;;;;;;;11.20;9.80;;;;;;;;;;79627;264;3037332;-35
2023/03/17 05:36:24;;;;;;;11.60;9.50;;;;;;;;;;79642;264;3032596;-35
2023/03/17 05:39:02;;;;;;;12.60;10.10;;;;;;;;;;79655;264;3028696;-35
2023/03/17 05:41:41;;;;;;;11.40;9.50;;;;;;;;;;79626;264;3027879;-35
2023/03/17 05:44:19;;;;;;;12.10;9.80;;;;;;;;;;79659;264;3039617;-35
2023/03/17 05:46:54;;;;;;;12.10;10.10;;;;;;;;;;79661;264;3031811;-35
2023/03/17 05:49:31;;;;;;;11.90;9.60;;;;;;;;;;80361;264;3011346;-35
2023/03/17 05:52:07;;;;;;;12.20;9.70;;;;;;;;;;79591;264;3028344;-35
2023/03/17 05:54:43;;;;;;;13.10;10.10;;;;;;;;;;79678;264;3027407;-35
2023/03/17 05:57:17;;;;;;;12.30;9.60;;;;;;;;;;79667;264;3031398;-35
2023/03/17 05:59:53;;;;;;;12.10;9.80;;;;;;;;;;80383;264;3011623;-35
2023/03/17 06:02:29;;;;;;;12.50;9.80;;;;;;;;;;80378;264;3011569;-35
2023/03/17 06:05:07;;;;;;;13.00;10.00;;;;;;;;;;79661;264;3031037;-35
2023/03/17 06:07:48;;;;;;;11.70;10.00;;;;;;;;;;79657;264;3028063;-35
2023/03/17 06:10:29;;;;;;;;;;;;;;;;;;79699;264;3027679;-35
2023/03/17 06:13:10;;;;;;;12.30;9.50;;;;;;;;;;79642;264;3030392;-35
2023/03/17 06:15:50;;;;;;;12.30;9.60;;;;;;;;;;79664;264;3031146;-35
2023/03/17 06:18:25;;;;;;;12.10;9.60;;;;;;;;;;79644;264;3028471;-35
2023/03/17 06:21:02;;;;;;;11.70;9.30;;;;;;;;;;80386;264;3011447;-35
2023/03/17 06:23:38;;;;;;;11.80;9.50;;;;;;;;;;79636;264;3027767;-35
2023/03/17 06:26:19;;;;;;;11.20;9.70;;;;;;;;;;80353;264;3011589;-35
2023/03/17 06:28:56;;;;;;;11.70;9.70;;;;;;;;;;79682;264;3031144;-35
2023/03/17 06:31:33;;;;;;;11.80;9.60;;;;;;;;;;79649;264;3032147;-35
2023/03/17 06:34:12;;;;;;;11.40;9.20;;;;;;;;;;79642;264;3027986;-35
2023/03/17 06:36:50;;;;;;;11.30;9.50;;;;;;;;;;79642;264;3027707;-35
2023/03/17 06:39:27;;;;;;;11.30;9.00;;;;;;;;;;80367;264;3011579;-35
2023/03/17 06:42:13;;;;;;;12.30;9.40;;;;;;;;;;79649;264;3031006;-36
2023/03/17 06:44:51;;;;;;;11.70;9.60;;;;;;;;;;79616;264;3032185;-36
2023/03/17 06:47:27;;;;;;;11.30;9.10;;;;;;;;;;79642;264;3028731;-36
2023/03/17 06:50:05;;;;;;;12.20;9.90;;;;;;;;;;79646;268;3027939;-36
2023/03/17 06:52:41;;;;;;;13.10;9.70;;;;;;;;;;79664;264;3030835;-36
2023/03/17 06:55:22;;;;;;;11.60;9.10;;;;;;;;;;79617;264;3032036;-36
2023/03/17 06:58:02;;;;;;;11.00;8.80;;;;;;;;;;79637;264;3028569;-36
2023/03/17 07:00:40;;;;;;;12.30;9.30;;;;;;;;;;79645;264;3028138;-36
2023/03/17 07:03:19;;;;;;;10.80;8.90;;;;;;;;;;79646;264;3030664;-35
2023/03/17 07:05:59;;;;;;;10.20;8.40;;;;;;;;;;79592;264;3037850;-35
2023/03/17 07:08:40;;;;;;;11.30;8.30;;;;;;;;;;79672;264;3028570;-35
2023/03/17 07:11:22;;;;;;;10.50;8.80;;;;;;;;;;79665;264;3027412;-35
2023/03/17 07:14:00;;;;;;;10.90;8.70;;;;;;;;;;79657;264;3030763;-35
2023/03/17 07:16:38;;;;;;;10.50;8.60;;;;;;;;;;79620;264;3031414;-35
2023/03/17 07:19:17;;;;;;;10.50;8.10;;;;;;;;;;79642;264;3028481;-35
2023/03/17 07:21:57;;;;;;;10.30;8.50;;;;;;;;;;79655;265;3027100;-35
2023/03/17 07:24:34;;;;;;;10.20;8.70;;;;;;;;;;79643;264;3029766;-35
2023/03/17 07:27:11;;;;;;;10.20;8.40;;;;;;;;;;79634;264;3031277;-35
2023/03/17 07:29:50;;;;;;;10.00;8.10;;;;;;;;;;79648;264;3028081;-35
2023/03/17 07:32:25;;;;;;;10.20;7.80;;;;;;;;;;79683;264;3027463;-35
2023/03/17 07:35:03;;;;;;;10.00;8.10;;;;;;;;;;80364;264;3011478;-35
2023/03/17 07:37:43;;;;;;;10.80;8.40;;;;;;;;;;79679;264;3030580;-35
2023/03/17 07:40:21;;;;;;;9.90;8.20;;;;;;;;;;79634;253;3032771;-35
2023/03/17 07:42:57;;;;;;;10.70;7.70;;;;;;;;;;79672;264;3029670;-35
2023/03/17 07:45:36;;;;;;;9.70;7.90;;;;;;;;;;79645;264;3027720;-35
2023/03/17 07:48:15;;;;;;;10.50;8.00;;;;;;;;;;79628;264;3031143;-35
2023/03/17 07:50:53;;;;;;;10.30;8.00;;;;;;;;;;79635;264;3031303;-35
2023/03/17 07:53:31;;;;;;;9.80;7.90;;;;;;;;;;79642;264;3027905;-35
2023/03/17 07:56:08;;;;;;;10.30;8.00;;;;;;;;;;79607;264;3027946;-35
2023/03/17 07:58:44;;;;;;;11.20;8.30;;;;;;;;;;79641;264;3031408;-35
2023/03/17 08:01:20;;;;;;;10.30;8.10;;;;;;;;;;79633;284;3031488;-35
2023/03/17 08:03:59;;;;;;;9.90;7.60;;;;;;;;;;80357;264;3011536;-35
2023/03/17 08:06:37;;;;;;;9.70;7.70;;;;;;;;;;79596;264;3028635;-35
2023/03/17 08:09:14;;;;;;;10.00;7.60;;;;;;;;;;79644;264;3027462;-35
2023/03/17 08:11:55;;;;;;;9.60;7.30;;;;;;;;;;79890;264;3031527;-37
2023/03/17 08:14:33;;;;;;;9.90;7.90;;;;;;;;;;79563;265;3031482;-35
2023/03/17 08:17:09;;;;;;;10.00;7.40;;;;;;;;;;79553;265;3028824;-36
2023/03/17 08:19:49;;;;;;;10.00;7.50;;;;;;;;;;79589;265;3027712;-35
2023/03/17 08:22:27;;;;;;;10.40;7.50;;;;;;;;;;79556;265;3031197;-36
2023/03/17 08:25:05;;;;;;;8.70;7.10;;;;;;;;;;79578;265;3032410;-36
2023/03/17 08:27:44;;;;;;;9.40;6.90;;;;;;;;;;79661;265;3033926;-37
2023/03/17 08:30:21;;;;;;;10.00;7.20;;;;;;;;;;79567;265;3028476;-38
2023/03/17 08:32:58;;;;;;;9.90;7.20;;;;;;;;;;79568;265;3031636;-37
2023/03/17 08:35:37;;;;;;;8.90;6.90;;;;;;;;;;79572;265;3031923;-35
2023/03/17 08:38:14;;;;;;;10.50;7.20;;;;;;;;;;79625;265;3035513;-36
2023/03/17 08:40:51;;;;;;;9.40;6.70;;;;;;;;;;79597;265;3027031;-37
2023/03/17 08:43:28;;;;;;;9.20;6.60;;;;;;;;;;79557;253;3030607;-36
2023/03/17 08:46:13;;;;;;;8.50;6.90;;;;;;;;;;79471;266;3031268;-35
2023/03/17 08:48:55;;;;;;;9.60;6.70;;;;;;;;;;79571;265;3028184;-36
2023/03/17 08:51:38;;;;;;;8.50;6.50;;;;;;;;;;79602;265;3027071;-37
2023/03/17 08:54:22;;;;;;;8.50;6.00;;;;;;;;;;79600;265;3031188;-34
2023/03/17 08:57:00;;;;;;;7.70;6.10;;;;;;;;;;79553;265;3031196;-37
2023/03/17 08:59:37;;;;;;;8.30;6.00;;;;;;;;;;79594;265;3028100;-38
2023/03/17 09:02:19;;;;;;;8.60;6.30;;;;;;;;;;79588;265;3027252;-37
2023/03/17 09:04:58;;;;;;;8.50;6.20;;;;;;;;;;79620;265;3031075;-36
2023/03/17 09:07:39;;;;;;;8.20;6.10;;;;;;;;;;79537;265;3031420;-36
2023/03/17 09:10:23;;;;;;;9.40;6.20;;;;;;;;;;79577;265;3027854;-35
2023/03/17 09:13:07;;;;;;;;;;;;;;;;;;79610;265;3027892;-37
2023/03/17 09:15:48;;;;;;;8.80;5.90;;;;;;;;;;79589;265;3030475;-37
2023/03/17 09:18:26;;;;;;;8.70;6.00;;;;;;;;;;79574;265;3031688;-37
2023/03/17 09:21:03;;;;;;;8.10;6.00;;;;;;;;;;80290;273;3012542;-37
2023/03/17 09:23:42;;;;;;;8.50;5.70;;;;;;;;;;79549;265;3028082;-37
2023/03/17 09:26:18;;;;;;;7.30;5.80;;;;;;;;;;79606;265;3030081;-37
2023/03/17 09:28:55;;;;;;;8.10;5.90;;;;;;;;;;79558;265;3031224;-37
2023/03/17 09:31:32;;;;;;;7.90;5.70;;;;;;;;;;79585;265;3032279;-35
2023/03/17 09:34:11;;;;;;;8.00;5.40;;;;;;;;;;79617;265;3028706;-35
2023/03/17 09:36:48;;;;;;;7.90;5.50;;;;;;;;;;79587;265;3027020;-36
2023/03/17 09:39:26;;;;;;;8.00;5.30;;;;;;;;;;79529;265;3036914;-37
2023/03/17 09:42:14;;;;;;;8.30;5.60;;;;;;;;;;79601;265;3034286;-36
2023/03/17 09:45:06;;;;;;;6.90;5.20;;;;;;;;;;79556;265;3027890;-36
2023/03/17 09:48:05;;;;;;;7.70;5.60;;;;;;;;;;79552;265;3027333;-35
2023/03/17 09:50:48;;;;;;;9.10;5.40;;;;;;;;;;79558;265;3031098;-36
2023/03/17 09:53:32;;;;;;;7.60;5.10;;;;;;;;;;78853;265;3032061;-37
2023/03/17 09:56:15;;;;;;;7.80;5.00;;;;;;;;;;79524;265;3028069;-37
2023/03/17 09:58:57;;;;;;;7.20;4.90;;;;;;;;;;79554;265;3027289;-36
2023/03/17 10:01:33;;;;;;;8.80;4.80;;;;;;;;;;79587;265;3030388;-37
2023/03/17 10:04:21;;;;;;;7.00;5.00;;;;;;;;;;79557;265;3032431;-36
2023/03/17 10:07:08;;;;;;;6.60;4.90;;;;;;;;;;79549;265;3028900;-35
2023/03/17 10:09:54;;;;;;;7.10;4.70;;;;;;;;;;79554;265;3030441;-36
2023/03/17 10:12:48;;;;;;;6.40;4.50;;;;;;;;;;79589;264;3031786;-35
2023/03/17 10:15:37;;;;;;;7.60;4.80;;;;;;;;;;79550;265;3031408;-35
2023/03/17 10:18:20;;;;;;;6.90;4.90;;;;;;;;;;79474;266;3028372;-35
2023/03/17 10:20:59;;;;;;;7.70;5.10;;;;;;;;;;79480;266;3029211;-35
2023/03/17 10:23:40;;;;;;;6.80;5.10;;;;;;;;;;79527;266;3030974;-35
2023/03/17 10:26:30;;;;;;;7.50;4.40;;;;;;;;;;79481;266;3031862;-35
2023/03/17 10:29:16;;;;;;;7.60;4.70;;;;;;;;;;79466;266;3028684;-35
2023/03/17 10:31:54;;;;;;;6.80;4.40;;;;;;;;;;79487;266;3027734;-35
2023/03/17 10:34:38;;;;;;;7.20;4.40;;;;;;;;;;79523;266;3031190;-35
2023/03/17 10:37:20;;;;;;;6.60;4.60;;;;;;;;;;79519;266;3031233;-35
2023/03/17 10:40:02;;;;;;;7.30;4.60;;;;;;;;;;79441;266;3028706;-35
2023/03/17 10:42:49;;;;;;;6.60;4.30;;;;;;;;;;79504;266;3027782;-37
2023/03/17 10:45:31;;;;;;;6.90;4.80;;;;;;;;;;79491;266;3031076;-37
2023/03/17 10:48:17;;;;;;;;;;;;;;;;;;79541;266;3031411;-37
2023/03/17 10:50:57;;;;;;;6.60;4.20;;;;;;;;;;79452;266;3028393;-37
2023/03/17 10:53:43;;;;;;;6.90;4.50;;;;;;;;;;79525;266;3027983;-37
2023/03/17 10:56:29;;;;;;;6.50;4.50;;;;;;;;;;79544;266;3031252;-35
2023/03/17 10:59:18;;;;;;;7.00;4.40;;;;;;;;;;79495;266;3032082;-37
2023/03/17 11:02:01;;;;;;;6.30;4.20;;;;;;;;;;79531;270;3028264;-36
2023/03/17 11:04:41;;;;;;;6.40;4.50;;;;;;;;;;79496;313;3027662;-36
2023/03/17 11:07:32;;;;;;;6.30;4.10;;;;;;;;;;79504;266;3030539;-35
2023/03/17 11:10:20;;;;;;;7.30;4.30;;;;;;;;;;79462;266;3031157;-36
2023/03/17 11:13:05;;;;;;;6.60;4.40;;;;;;;;;;79457;266;3028185;-36
2023/03/17 11:15:48;;;;;;;6.50;4.20;;;;;;;;;;79515;266;3027068;-36
2023/03/17 11:18:29;;;;;;;6.90;4.30;;;;;;;;;;79484;266;3031131;-37
2023/03/17 11:21:12;;;;;;;6.40;4.00;;;;;;;;;;79473;266;3031347;-35
2023/03/17 11:23:54;;;;;;;6.20;3.90;;;;;;;;;;79473;266;3028348;-36
2023/03/17 11:26:57;;;;;;;5.70;4.00;;;;;;;;;;79521;267;3029869;-36
2023/03/17 11:29:57;;;;;;;6.20;3.90;;;;;;;;;;79486;262;3031160;-36
2023/03/17 11:32:40;;;;;;;6.40;3.90;;;;;;;;;;79480;315;3038234;-36
2023/03/17 11:35:34;;;;;;;6.50;3.80;;;;;;;;;;79513;266;3028272;-36
2023/03/17 11:38:28;;;;;;;5.90;3.70;;;;;;;;;;79509;266;3027413;-36
2023/03/17 11:41:31;;;;;;;6.80;4.30;;;;;;;;;;79510;266;3030382;-34
2023/03/17 11:44:56;;;;;;;6.20;3.80;;;;;;;;;;79505;267;3031340;-35
2023/03/17 11:48:06;;;;;;;6.40;3.80;;;;;;;;;;79499;266;3027982;-35
2023/03/17 11:50:55;;;;;;;6.20;3.60;;;;;;;;;;79471;266;3027493;-36
2023/03/17 11:53:58;;;;;;;5.50;3.40;;;;;;;;;;79489;266;3030022;-35
2023/03/17 11:56:41;;;;;;;5.90;3.60;;;;;;;;;;79373;266;3032124;-36
2023/03/17 11:59:35;;;;;;;6.70;3.80;;;;;;;;;;79523;266;3028449;-36
2023/03/17 12:02:28;;;;;;;6.20;4.00;;;;;;;;;;79450;267;3027422;-37
2023/03/17 12:05:08;;;;;;;5.60;3.60;;;;;;;;;;79446;267;3031283;-36
2023/03/17 12:07:48;;;;;;;5.30;3.20;;;;;;;;;;79469;267;3031339;-36
2023/03/17 12:10:32;;;;;;;7.10;3.30;;;;;;;;;;79486;267;3028027;-36
2023/03/17 12:13:13;;;;;;;5.50;3.40;;;;;;;;;;79443;267;3028168;-36
2023/03/17 12:15:54;;;;;;;5.60;3.30;;;;;;;;;;79477;267;3030677;-36
2023/03/17 12:18:36;;;;;;;5.80;3.70;;;;;;;;;;79476;267;3031406;-36
2023/03/17 12:21:20;;;;;;;5.40;3.50;;;;;;;;;;79487;267;3028529;-36
2023/03/17 12:24:01;;;;;;;5.70;3.30;;;;;;;;;;79505;266;3027114;-36
2023/03/17 12:26:48;;;;;;;5.80;3.50;;;;;;;;;;79500;266;3031395;-36
2023/03/17 12:29:37;;;;;;;5.70;3.50;;;;;;;;;;79505;254;3031312;-36
2023/03/17 12:32:25;;;;;;;5.90;3.40;;;;;;;;;;79442;266;3028575;-36
2023/03/17 12:35:11;;;;;;;5.90;3.50;;;;;;;;;;79504;266;3027728;-36
2023/03/17 12:37:55;;;;;;;5.60;3.40;;;;;;;;;;79468;266;3031078;-36
2023/03/17 12:40:35;;;;;;;6.00;3.50;;;;;;;;;;79521;266;3031733;-36
2023/03/17 12:43:40;;;;;;;5.50;3.20;;;;;;;;;;79502;266;3028309;-36
2023/03/17 12:46:40;;;;;;;5.70;3.40;;;;;;;;;;79503;266;3027738;-36
2023/03/17 12:49:41;;;;;;;5.90;3.50;;;;;;;;;;79481;266;3031051;-36
2023/03/17 12:52:44;;;;;;;5.50;3.10;;;;;;;;;;79458;266;3031409;-36
2023/03/17 12:55:29;;;;;;;5.50;3.30;;;;;;;;;;79481;266;3027996;-36
2023/03/17 12:58:20;;;;;;;5.80;3.40;;;;;;;;;;79522;266;3027604;-36
2023/03/17 13:01:14;;;;;;;5.90;3.10;;;;;;;;;;79499;262;3030574;-36
2023/03/17 13:04:04;;;;;;;6.00;3.30;;;;;;;;;;79309;267;3032099;-36
2023/03/17 13:06:47;;;;;;;4.90;2.90;;;;;;;;;;79507;266;3028533;-36
2023/03/17 13:09:51;;;;;;;5.40;3.30;;;;;;;;;;79511;266;3028080;-36
2023/03/17 13:13:08;;;;;;;5.60;3.40;;;;;;;;;;79481;266;3030994;-35
2023/03/17 13:15:58;;;;;;;5.00;2.90;;;;;;;;;;79519;266;3031625;-35
2023/03/17 13:18:54;;;;;;;5.10;3.20;;;;;;;;;;79513;266;3028292;-35
2023/03/17 13:21:31;;;;;;;5.50;3.40;;;;;;;;;;79523;266;3027845;-35
2023/03/17 13:24:50;;;;;;;5.60;3.10;;;;;;;;;;79487;266;3031528;-35
2023/03/17 13:27:48;;;;;;;5.20;3.00;;;;;;;;;;79470;266;3031434;-35
2023/03/17 13:30:57;;;;;;;6.20;3.20;;;;;;;;;;79504;266;3028197;-35
2023/03/17 13:33:37;;;;;;;5.00;3.20;;;;;;;;;;79507;254;3027396;-35
2023/03/17 13:36:34;;;;;;;5.60;3.50;;;;;;;;;;79494;266;3031025;-36
2023/03/17 13:39:53;;;;;;;6.40;3.50;;;;;;;;;;79510;266;3031624;-35
2023/03/17 13:43:01;;;;;;;6.40;3.40;;;;;;;;;;79503;266;3028459;-35
2023/03/17 13:45:47;;;;;;;6.30;3.60;;;;;;;;;;79522;266;3034537;-36
2023/03/17 13:48:44;;;;;;;5.80;3.40;;;;;;;;;;79512;266;3031078;-35
2023/03/17 13:51:29;;;;;;;6.90;3.80;;;;;;;;;;79422;266;3032114;-36
2023/03/17 13:54:32;;;;;;;6.30;3.70;;;;;;;;;;79448;266;3028582;-35
2023/03/17 13:57:39;;;;;;;5.30;3.20;;;;;;;;;;79512;266;3028624;-35
2023/03/17 14:00:25;;;;;;;5.20;3.20;;;;;;;;;;79336;266;3031221;-35
2023/03/17 14:03:08;;;;;;;6.30;3.30;;;;;;;;;;79510;266;3031621;-35
2023/03/17 14:05:52;;;;;;;6.50;3.50;;;;;;;;;;79485;266;3028250;-35
2023/03/17 14:08:35;;;;;;;5.50;3.50;;;;;;;;;;79486;266;3026976;-35
2023/03/17 14:11:23;;;;;;;6.20;4.10;;;;;;;;;;79488;266;3030726;-35
2023/03/17 14:14:16;;;;;;;6.30;4.30;;;;;;;;;;79454;266;3031122;-35
2023/03/17 14:17:14;;;;;;;7.70;5.30;;;;;;;;;;79483;266;3034388;-36
2023/03/17 14:23:01;;;;;;;7.70;5.50;;;;;;;;;;80092;293;3011358;-36
2023/03/17 14:25:41;;;;;;;7.00;5.20;;;;;;;;;;79240;270;3028274;-36
2023/03/17 14:28:22;;;;;;;7.40;5.00;;;;;;;;;;79325;269;3028010;-36
2023/03/17 14:31:04;;;;;;;6.90;5.20;;;;;;;;;;79278;270;3030901;-36
2023/03/17 14:33:46;;;;;;;7.20;5.20;;;;;;;;;;79239;269;3031706;-36
2023/03/17 14:36:22;;;;;;;7.80;4.70;;;;;;;;;;78981;268;3454175;-36
2023/03/17 14:39:00;;;;;;;7.70;4.80;;;;;;;;;;79365;268;3027789;-36
2023/03/17 14:41:43;;;;;;;7.00;4.70;;;;;;;;;;79377;268;3030844;-36
2023/03/17 14:44:18;;;;;;;6.20;4.20;;;;;;;;;;79470;267;3037079;-36
2023/03/17 14:47:05;;;;;;;6.30;4.30;;;;;;;;;;80201;267;3011537;-36
2023/03/17 14:49:45;;;;;;;7.00;4.40;;;;;;;;;;79500;267;3027939;-36
2023/03/17 14:52:28;;;;;;;7.00;4.50;;;;;;;;;;79468;267;3027081;-36
2023/03/17 14:55:12;;;;;;;6.50;4.00;;;;;;;;;;79674;264;3031486;-36
2023/03/17 14:58:01;;;;;;;6.70;4.20;;;;;;;;;;79671;263;3031630;-34
2023/03/17 15:00:42;;;;;;;6.20;3.80;;;;;;;;;;79661;264;3028420;-34
2023/03/17 15:03:24;;;;;;;6.30;3.70;;;;;;;;;;79632;263;3027627;-35
2023/03/17 15:06:23;;;;;;;6.50;4.00;;;;;;;;;;79677;263;3031540;-36
2023/03/17 15:09:08;;;;;;;5.90;3.80;;;;;;;;;;79558;263;3031741;-35
2023/03/17 15:11:49;;;;;;;5.90;3.40;;;;;;;;;;79654;263;3029693;-37
2023/03/17 15:14:29;;;;;;;7.70;3.60;;;;;;;;;;79594;263;3027847;-35
2023/03/17 15:17:16;;;;;;;7.50;4.00;;;;;;;;;;79664;263;3030510;-34
2023/03/17 15:19:56;;;;;;;6.90;3.60;;;;;;;;;;79641;264;3031616;-34
2023/03/17 15:22:40;;;;;;;5.90;3.60;;;;;;;;;;79656;263;3028726;-34
2023/03/17 15:25:27;;;;;;;6.00;3.60;;;;;;;;;;79618;263;3033387;-34
2023/03/17 15:28:08;;;;;;;6.60;3.70;;;;;;;;;;79635;263;3031254;-34
2023/03/17 15:30:47;;;;;;;6.10;3.50;;;;;;;;;;79662;263;3031830;-36
2023/03/17 15:33:35;;;;;;;6.70;3.50;;;;;;;;;;79621;263;3029705;-33
2023/03/17 15:36:16;;;;;;;7.00;3.60;;;;;;;;;;79854;259;3027322;-32
2023/03/17 15:39:09;;;;;;;5.70;3.60;;;;;;;;;;79846;259;3031238;-33
2023/03/17 15:41:43;;;;;;;6.30;3.60;;;;;;;;;;79809;259;3032024;-34
2023/03/17 15:44:19;;;;;;;5.80;3.60;;;;;;;;;;80526;259;3012474;-31
2023/03/17 15:46:57;;;;;;;6.00;3.20;;;;;;;;;;80584;259;3011558;-35
2023/03/17 15:49:35;;;;;;;7.20;3.60;;;;;;;;;;79832;259;3029110;-34
2023/03/17 15:52:20;;;;;;;7.10;3.60;;;;;;;;;;79841;259;3027193;-33